createdAt,value
2023-05-06T07:03:34.173Z,4.87
2023-05-06T07:06:37.025Z,5.65
2023-05-06T07:09:42.122Z,5.40
2023-05-06T07:12:44.904Z,4.35
2023-05-06T07:15:47.392Z,4.82
2023-05-06T07:18:53.749Z,5.10
2023-05-06T07:21:56.922Z,5.40
2023-05-06T07:24:59.639Z,4.37
2023-05-06T07:28:02.113Z,4.60
2023-05-06T07:31:04.909Z,5.03
2023-05-06T07:34:08.832Z,4.40
2023-05-06T07:37:11.535Z,4.82
2023-05-06T07:40:14.130Z,5.00
2023-05-06T07:43:17.085Z,5.28
2023-05-06T07:46:19.659Z,4.83
2023-05-06T07:49:25.361Z,4.57
2023-05-06T07:52:28.085Z,4.93
2023-05-06T07:55:32.033Z,4.87
2023-05-06T07:58:35.926Z,4.65
2023-05-06T08:01:38.679Z,4.90
2023-05-06T08:04:43.202Z,5.07
2023-05-06T08:07:46.141Z,4.95
2023-05-06T08:10:49.367Z,4.60
2023-05-06T08:13:51.847Z,4.47
2023-05-06T08:16:54.633Z,3.87
2023-05-06T08:19:58.495Z,4.35
2023-05-06T08:23:01.262Z,3.97
2023-05-06T08:26:03.817Z,4.28
2023-05-06T08:29:08.069Z,4.13
2023-05-06T08:32:10.710Z,3.50
2023-05-06T08:35:15.031Z,3.70
2023-05-06T08:38:17.455Z,3.67
2023-05-06T08:41:21.594Z,3.60
2023-05-06T08:44:24.521Z,3.60
2023-05-06T08:47:27.531Z,3.22
2023-05-06T08:50:31.428Z,3.43
2023-05-06T08:53:34.274Z,3.65
2023-05-06T08:56:36.694Z,3.70
2023-05-06T08:59:39.454Z,3.50
2023-05-06T09:02:43.429Z,4.00
2023-05-06T09:05:47.673Z,3.97
2023-05-06T09:08:50.372Z,3.50
2023-05-06T09:11:55.329Z,3.80
2023-05-06T09:14:57.796Z,3.97
2023-05-06T09:18:00.795Z,3.05
2023-05-06T09:21:04.793Z,4.00
2023-05-06T09:24:08.780Z,3.40
2023-05-06T09:27:12.322Z,3.40
2023-05-06T09:30:16.270Z,3.33
2023-05-06T09:33:18.728Z,3.25
2023-05-06T09:36:23.687Z,2.90
2023-05-06T09:39:26.959Z,2.85
2023-05-06T09:45:32.901Z,3.05
2023-05-06T09:48:36.022Z,2.60
2023-05-06T09:51:41.635Z,2.20
2023-05-06T09:54:44.551Z,2.10
2023-05-06T09:57:47.663Z,2.83
2023-05-06T10:00:51.416Z,2.00
2023-05-06T10:03:54.323Z,2.62
2023-05-06T10:06:58.154Z,3.55
2023-05-06T10:10:00.920Z,2.40
2023-05-06T10:13:04.481Z,2.70
2023-05-06T10:16:07.891Z,2.22
2023-05-06T10:19:10.412Z,2.58
2023-05-06T10:22:22.161Z,3.20
2023-05-06T10:25:30.457Z,2.97
2023-05-06T10:28:35.786Z,3.40
2023-05-06T10:31:40.525Z,3.33
2023-05-06T10:34:47.788Z,3.53
2023-05-06T10:37:51.508Z,3.85
